sensor_id;sensor_type;location;lat;lon;timestamp;temperature;humidity
19586;DHT22;9939;49.246;9.106;2023-05-08T00:01:28;14.70;99.90
19586;DHT22;9939;49.246;9.106;2023-05-08T00:03:55;14.60;99.90
19586;DHT22;9939;49.246;9.106;2023-05-08T00:06:23;14.60;99.90
19586;DHT22;9939;49.246;9.106;2023-05-08T00:08:50;14.60;99.90
19586;DHT22;9939;49.246;9.106;2023-05-08T00:11:17;14.60;99.90
19586;DHT22;9939;49.246;9.106;2023-05-08T00:13:44;14.60;99.90
19586;DHT22;9939;49.246;9.106;2023-05-08T00:16:11;14.60;99.90
19586;DHT22;9939;49.246;9.106;2023-05-08T00:18:38;14.60;99.90
19586;DHT22;9939;49.246;9.106;2023-05-08T00:21:05;14.50;99.90
19586;DHT22;9939;49.246;9.106;2023-05-08T00:23:32;14.50;99.90
19586;DHT22;9939;49.246;9.106;2023-05-08T00:26:00;14.60;99.90
19586;DHT22;9939;49.246;9.106;2023-05-08T00:28:27;14.60;99.90
19586;DHT22;9939;49.246;9.106;2023-05-08T00:30:54;14.60;99.90
19586;DHT22;9939;49.246;9.106;2023-05-08T00:33:21;14.60;99.90
19586;DHT22;9939;49.246;9.106;2023-05-08T00:35:48;14.50;99.90
19586;DHT22;9939;49.246;9.106;2023-05-08T00:38:14;14.60;99.90
19586;DHT22;9939;49.246;9.106;2023-05-08T00:40:43;14.60;99.90
19586;DHT22;9939;49.246;9.106;2023-05-08T00:43:10;14.60;99.90
19586;DHT22;9939;49.246;9.106;2023-05-08T00:45:38;14.60;99.90
19586;DHT22;9939;49.246;9.106;2023-05-08T00:48:05;14.50;99.90
19586;DHT22;9939;49.246;9.106;2023-05-08T00:50:32;14.60;99.90
19586;DHT22;9939;49.246;9.106;2023-05-08T00:52:59;14.50;99.90
19586;DHT22;9939;49.246;9.106;2023-05-08T00:55:29;14.50;99.90
19586;DHT22;9939;49.246;9.106;2023-05-08T00:57:56;14.60;99.90
19586;DHT22;9939;49.246;9.106;2023-05-08T01:00:23;14.50;99.90
19586;DHT22;9939;49.246;9.106;2023-05-08T01:02:50;14.60;99.90
19586;DHT22;9939;49.246;9.106;2023-05-08T01:05:18;14.60;99.90
19586;DHT22;9939;49.246;9.106;2023-05-08T01:07:45;14.60;99.90
19586;DHT22;9939;49.246;9.106;2023-05-08T01:10:12;14.70;99.90
19586;DHT22;9939;49.246;9.106;2023-05-08T01:15:15;14.60;99.90
19586;DHT22;9939;49.246;9.106;2023-05-08T01:18:01;14.70;99.90
19586;DHT22;9939;49.246;9.106;2023-05-08T01:20:47;14.50;99.90
19586;DHT22;9939;49.246;9.106;2023-05-08T01:33:55;14.50;99.90
19586;DHT22;9939;49.246;9.106;2023-05-08T01:41:59;14.40;99.90
19586;DHT22;9939;49.246;9.106;2023-05-08T01:44:30;14.40;99.90
19586;DHT22;9939;49.246;9.106;2023-05-08T01:46:59;14.50;99.90
19586;DHT22;9939;49.246;9.106;2023-05-08T01:49:33;14.50;99.90
19586;DHT22;9939;49.246;9.106;2023-05-08T01:52:05;14.40;99.90
19586;DHT22;9939;49.246;9.106;2023-05-08T01:54:35;14.50;99.90
19586;DHT22;9939;49.246;9.106;2023-05-08T01:57:05;14.50;99.90
19586;DHT22;9939;49.246;9.106;2023-05-08T01:59:33;14.50;99.90
19586;DHT22;9939;49.246;9.106;2023-05-08T02:02:01;14.40;99.90
19586;DHT22;9939;49.246;9.106;2023-05-08T02:04:28;14.50;99.90
19586;DHT22;9939;49.246;9.106;2023-05-08T02:06:56;14.50;99.90
19586;DHT22;9939;49.246;9.106;2023-05-08T02:09:25;14.50;99.90
19586;DHT22;9939;49.246;9.106;2023-05-08T02:11:52;14.50;99.90
19586;DHT22;9939;49.246;9.106;2023-05-08T02:14:20;14.50;99.90
19586;DHT22;9939;49.246;9.106;2023-05-08T02:16:47;14.50;99.90
19586;DHT22;9939;49.246;9.106;2023-05-08T02:19:16;14.40;99.90
19586;DHT22;9939;49.246;9.106;2023-05-08T02:21:44;14.40;99.90
19586;DHT22;9939;49.246;9.106;2023-05-08T02:24:12;14.50;99.90
19586;DHT22;9939;49.246;9.106;2023-05-08T02:26:40;14.50;99.90
19586;DHT22;9939;49.246;9.106;2023-05-08T02:29:08;14.60;99.90
19586;DHT22;9939;49.246;9.106;2023-05-08T02:31:35;14.50;99.90
19586;DHT22;9939;49.246;9.106;2023-05-08T02:34:03;14.50;99.90
19586;DHT22;9939;49.246;9.106;2023-05-08T02:36:30;14.50;99.90
19586;DHT22;9939;49.246;9.106;2023-05-08T02:38:58;14.50;99.90
19586;DHT22;9939;49.246;9.106;2023-05-08T02:41:27;14.60;99.90
19586;DHT22;9939;49.246;9.106;2023-05-08T02:43:55;14.50;99.90
19586;DHT22;9939;49.246;9.106;2023-05-08T02:46:35;14.50;99.90
19586;DHT22;9939;49.246;9.106;2023-05-08T02:49:06;14.40;99.90
19586;DHT22;9939;49.246;9.106;2023-05-08T02:51:56;14.40;99.90
19586;DHT22;9939;49.246;9.106;2023-05-08T02:55:28;14.30;99.90
19586;DHT22;9939;49.246;9.106;2023-05-08T03:00:31;14.40;99.90
19586;DHT22;9939;49.246;9.106;2023-05-08T03:03:17;14.40;99.90
19586;DHT22;9939;49.246;9.106;2023-05-08T03:05:55;14.40;99.90
19586;DHT22;9939;49.246;9.106;2023-05-08T03:08:28;14.30;99.90
19586;DHT22;9939;49.246;9.106;2023-05-08T03:10:56;14.30;99.90
19586;DHT22;9939;49.246;9.106;2023-05-08T03:13:24;14.20;99.90
19586;DHT22;9939;49.246;9.106;2023-05-08T03:15:54;14.30;99.90
19586;DHT22;9939;49.246;9.106;2023-05-08T03:18:25;14.30;99.90
19586;DHT22;9939;49.246;9.106;2023-05-08T03:20:53;14.20;99.90
19586;DHT22;9939;49.246;9.106;2023-05-08T03:23:20;14.20;99.90
19586;DHT22;9939;49.246;9.106;2023-05-08T03:25:48;14.20;99.90
19586;DHT22;9939;49.246;9.106;2023-05-08T03:28:17;14.20;99.90
19586;DHT22;9939;49.246;9.106;2023-05-08T03:30:45;14.20;99.90
19586;DHT22;9939;49.246;9.106;2023-05-08T03:33:14;14.30;99.90
19586;DHT22;9939;49.246;9.106;2023-05-08T03:35:43;14.40;99.90
19586;DHT22;9939;49.246;9.106;2023-05-08T03:38:10;14.50;99.90
19586;DHT22;9939;49.246;9.106;2023-05-08T03:40:38;14.40;99.90
19586;DHT22;9939;49.246;9.106;2023-05-08T03:43:05;14.40;99.90
19586;DHT22;9939;49.246;9.106;2023-05-08T03:45:34;14.40;99.90
19586;DHT22;9939;49.246;9.106;2023-05-08T03:48:03;14.30;99.90
19586;DHT22;9939;49.246;9.106;2023-05-08T03:50:33;14.30;99.90
19586;DHT22;9939;49.246;9.106;2023-05-08T03:53:02;14.30;99.90
19586;DHT22;9939;49.246;9.106;2023-05-08T03:55:30;14.30;99.90
19586;DHT22;9939;49.246;9.106;2023-05-08T03:58:00;14.30;99.90
19586;DHT22;9939;49.246;9.106;2023-05-08T04:00:31;14.30;99.90
19586;DHT22;9939;49.246;9.106;2023-05-08T04:03:06;14.20;99.90
19586;DHT22;9939;49.246;9.106;2023-05-08T04:05:41;14.20;99.90
19586;DHT22;9939;49.246;9.106;2023-05-08T04:08:16;14.10;99.90
19586;DHT22;9939;49.246;9.106;2023-05-08T04:10:47;14.10;99.90
19586;DHT22;9939;49.246;9.106;2023-05-08T04:13:17;14.20;99.90
19586;DHT22;9939;49.246;9.106;2023-05-08T04:16:08;14.20;99.90
19586;DHT22;9939;49.246;9.106;2023-05-08T04:18:33;14.10;99.90
19586;DHT22;9939;49.246;9.106;2023-05-08T04:21:02;14.20;99.90
19586;DHT22;9939;49.246;9.106;2023-05-08T04:23:32;14.10;99.90
19586;DHT22;9939;49.246;9.106;2023-05-08T04:26:00;14.20;99.90
19586;DHT22;9939;49.246;9.106;2023-05-08T04:28:31;14.20;99.90
19586;DHT22;9939;49.246;9.106;2023-05-08T04:30:58;14.20;99.90
19586;DHT22;9939;49.246;9.106;2023-05-08T04:33:28;14.30;99.90
19586;DHT22;9939;49.246;9.106;2023-05-08T04:35:55;14.20;99.90
19586;DHT22;9939;49.246;9.106;2023-05-08T04:38:23;14.10;99.90
19586;DHT22;9939;49.246;9.106;2023-05-08T04:40:51;14.20;99.90
19586;DHT22;9939;49.246;9.106;2023-05-08T04:43:18;14.20;99.90
19586;DHT22;9939;49.246;9.106;2023-05-08T04:45:45;14.20;99.90
19586;DHT22;9939;49.246;9.106;2023-05-08T04:48:12;14.30;99.90
19586;DHT22;9939;49.246;9.106;2023-05-08T04:50:39;14.20;99.90
19586;DHT22;9939;49.246;9.106;2023-05-08T04:53:07;14.20;99.90
19586;DHT22;9939;49.246;9.106;2023-05-08T04:55:33;14.20;99.90
19586;DHT22;9939;49.246;9.106;2023-05-08T04:58:01;14.20;99.90
19586;DHT22;9939;49.246;9.106;2023-05-08T05:00:27;14.20;99.90
19586;DHT22;9939;49.246;9.106;2023-05-08T05:02:55;14.20;99.90
19586;DHT22;9939;49.246;9.106;2023-05-08T05:05:22;14.10;99.90
19586;DHT22;9939;49.246;9.106;2023-05-08T05:07:49;14.10;99.90
19586;DHT22;9939;49.246;9.106;2023-05-08T05:10:18;14.20;99.90
19586;DHT22;9939;49.246;9.106;2023-05-08T05:12:45;14.20;99.90
19586;DHT22;9939;49.246;9.106;2023-05-08T05:15:12;14.30;99.90
19586;DHT22;9939;49.246;9.106;2023-05-08T05:17:40;14.40;99.90
19586;DHT22;9939;49.246;9.106;2023-05-08T05:20:07;14.40;99.90
19586;DHT22;9939;49.246;9.106;2023-05-08T05:22:34;14.40;99.90
19586;DHT22;9939;49.246;9.106;2023-05-08T05:25:01;14.40;99.90
19586;DHT22;9939;49.246;9.106;2023-05-08T05:27:29;14.40;99.90
19586;DHT22;9939;49.246;9.106;2023-05-08T05:29:57;14.40;99.90
19586;DHT22;9939;49.246;9.106;2023-05-08T05:32:25;14.40;99.90
19586;DHT22;9939;49.246;9.106;2023-05-08T05:34:52;14.50;99.90
19586;DHT22;9939;49.246;9.106;2023-05-08T05:37:20;14.60;99.90
19586;DHT22;9939;49.246;9.106;2023-05-08T05:39:47;14.60;99.90
19586;DHT22;9939;49.246;9.106;2023-05-08T05:42:15;14.60;99.90
19586;DHT22;9939;49.246;9.106;2023-05-08T05:44:42;14.60;99.90
19586;DHT22;9939;49.246;9.106;2023-05-08T05:47:09;14.60;99.90
19586;DHT22;9939;49.246;9.106;2023-05-08T05:49:38;14.70;99.90
19586;DHT22;9939;49.246;9.106;2023-05-08T05:52:09;14.70;99.90
19586;DHT22;9939;49.246;9.106;2023-05-08T05:54:36;14.70;99.90
19586;DHT22;9939;49.246;9.106;2023-05-08T05:57:04;14.70;99.90
19586;DHT22;9939;49.246;9.106;2023-05-08T05:59:31;14.70;99.90
19586;DHT22;9939;49.246;9.106;2023-05-08T06:01:58;14.70;99.90
19586;DHT22;9939;49.246;9.106;2023-05-08T06:04:25;14.60;99.90
19586;DHT22;9939;49.246;9.106;2023-05-08T06:06:53;14.60;99.90
19586;DHT22;9939;49.246;9.106;2023-05-08T06:09:19;14.60;99.90
19586;DHT22;9939;49.246;9.106;2023-05-08T06:11:49;14.50;99.90
19586;DHT22;9939;49.246;9.106;2023-05-08T06:14:17;14.50;99.90
19586;DHT22;9939;49.246;9.106;2023-05-08T06:16:44;14.40;99.90
19586;DHT22;9939;49.246;9.106;2023-05-08T06:19:11;14.50;99.90
19586;DHT22;9939;49.246;9.106;2023-05-08T06:21:38;14.60;99.90
19586;DHT22;9939;49.246;9.106;2023-05-08T06:24:05;14.70;99.90
19586;DHT22;9939;49.246;9.106;2023-05-08T06:26:33;14.70;99.90
19586;DHT22;9939;49.246;9.106;2023-05-08T06:29:00;14.70;99.90
19586;DHT22;9939;49.246;9.106;2023-05-08T06:31:27;14.70;99.90
19586;DHT22;9939;49.246;9.106;2023-05-08T06:33:54;14.70;99.90
19586;DHT22;9939;49.246;9.106;2023-05-08T06:36:21;14.60;99.90
19586;DHT22;9939;49.246;9.106;2023-05-08T06:38:48;14.60;99.90
19586;DHT22;9939;49.246;9.106;2023-05-08T06:41:15;14.60;99.90
19586;DHT22;9939;49.246;9.106;2023-05-08T06:43:42;14.60;99.90
19586;DHT22;9939;49.246;9.106;2023-05-08T06:46:09;14.70;99.90
19586;DHT22;9939;49.246;9.106;2023-05-08T06:48:36;14.60;99.90
19586;DHT22;9939;49.246;9.106;2023-05-08T06:51:03;14.50;99.90
19586;DHT22;9939;49.246;9.106;2023-05-08T06:53:30;14.60;99.90
19586;DHT22;9939;49.246;9.106;2023-05-08T06:55:57;14.50;99.90
19586;DHT22;9939;49.246;9.106;2023-05-08T06:58:24;14.50;99.90
19586;DHT22;9939;49.246;9.106;2023-05-08T07:00:51;14.60;99.90
19586;DHT22;9939;49.246;9.106;2023-05-08T07:03:18;14.50;99.90
19586;DHT22;9939;49.246;9.106;2023-05-08T07:05:45;14.60;99.90
19586;DHT22;9939;49.246;9.106;2023-05-08T07:08:12;14.60;99.90
19586;DHT22;9939;49.246;9.106;2023-05-08T07:10:39;14.60;99.90
19586;DHT22;9939;49.246;9.106;2023-05-08T07:13:06;14.60;99.90
19586;DHT22;9939;49.246;9.106;2023-05-08T07:15:33;14.60;99.90
19586;DHT22;9939;49.246;9.106;2023-05-08T07:18:00;14.70;99.90
19586;DHT22;9939;49.246;9.106;2023-05-08T07:20:27;14.70;99.90
19586;DHT22;9939;49.246;9.106;2023-05-08T07:22:54;14.60;99.90
19586;DHT22;9939;49.246;9.106;2023-05-08T07:25:21;14.60;99.90
19586;DHT22;9939;49.246;9.106;2023-05-08T07:27:48;14.70;99.90
19586;DHT22;9939;49.246;9.106;2023-05-08T07:30:15;14.70;99.90
19586;DHT22;9939;49.246;9.106;2023-05-08T07:32:42;14.80;99.90
19586;DHT22;9939;49.246;9.106;2023-05-08T07:35:09;14.80;99.90
19586;DHT22;9939;49.246;9.106;2023-05-08T07:37:38;14.70;99.90
19586;DHT22;9939;49.246;9.106;2023-05-08T07:40:05;14.70;99.90
19586;DHT22;9939;49.246;9.106;2023-05-08T07:42:42;14.60;99.90
19586;DHT22;9939;49.246;9.106;2023-05-08T07:45:09;14.70;99.90
19586;DHT22;9939;49.246;9.106;2023-05-08T07:47:38;14.70;99.90
19586;DHT22;9939;49.246;9.106;2023-05-08T07:50:13;14.60;99.90
19586;DHT22;9939;49.246;9.106;2023-05-08T07:52:40;14.60;99.90
19586;DHT22;9939;49.246;9.106;2023-05-08T07:55:07;14.50;99.90
19586;DHT22;9939;49.246;9.106;2023-05-08T07:57:35;14.70;99.90
19586;DHT22;9939;49.246;9.106;2023-05-08T08:00:06;14.50;99.90
19586;DHT22;9939;49.246;9.106;2023-05-08T08:02:39;14.60;99.90
19586;DHT22;9939;49.246;9.106;2023-05-08T08:05:06;14.60;99.90
19586;DHT22;9939;49.246;9.106;2023-05-08T08:07:34;14.60;99.90
19586;DHT22;9939;49.246;9.106;2023-05-08T08:10:01;14.50;99.90
19586;DHT22;9939;49.246;9.106;2023-05-08T08:12:29;14.70;99.90
19586;DHT22;9939;49.246;9.106;2023-05-08T08:14:57;14.80;99.90
19586;DHT22;9939;49.246;9.106;2023-05-08T08:17:23;14.90;99.90
19586;DHT22;9939;49.246;9.106;2023-05-08T08:19:54;14.90;99.90
19586;DHT22;9939;49.246;9.106;2023-05-08T08:22:21;14.90;99.90
19586;DHT22;9939;49.246;9.106;2023-05-08T08:24:48;15.00;99.90
19586;DHT22;9939;49.246;9.106;2023-05-08T08:27:16;15.20;99.90
19586;DHT22;9939;49.246;9.106;2023-05-08T08:29:43;15.50;99.90
19586;DHT22;9939;49.246;9.106;2023-05-08T08:32:10;15.70;99.90
19586;DHT22;9939;49.246;9.106;2023-05-08T08:34:37;15.40;99.90
19586;DHT22;9939;49.246;9.106;2023-05-08T08:37:05;15.30;99.90
19586;DHT22;9939;49.246;9.106;2023-05-08T08:39:32;15.50;99.90
19586;DHT22;9939;49.246;9.106;2023-05-08T08:42:02;15.90;99.90
19586;DHT22;9939;49.246;9.106;2023-05-08T08:44:29;16.10;99.90
19586;DHT22;9939;49.246;9.106;2023-05-08T08:46:57;16.10;99.90
19586;DHT22;9939;49.246;9.106;2023-05-08T08:49:26;16.10;99.90
19586;DHT22;9939;49.246;9.106;2023-05-08T08:52:05;15.80;99.90
19586;DHT22;9939;49.246;9.106;2023-05-08T08:54:33;15.80;99.90
19586;DHT22;9939;49.246;9.106;2023-05-08T08:57:04;15.80;99.90
19586;DHT22;9939;49.246;9.106;2023-05-08T08:59:33;15.80;99.90
19586;DHT22;9939;49.246;9.106;2023-05-08T09:02:08;15.90;99.90
19586;DHT22;9939;49.246;9.106;2023-05-08T09:04:37;15.80;99.90
19586;DHT22;9939;49.246;9.106;2023-05-08T09:07:04;15.80;99.90
19586;DHT22;9939;49.246;9.106;2023-05-08T09:09:35;16.00;99.90
19586;DHT22;9939;49.246;9.106;2023-05-08T09:12:06;16.00;99.90
19586;DHT22;9939;49.246;9.106;2023-05-08T09:14:33;15.90;99.90
19586;DHT22;9939;49.246;9.106;2023-05-08T09:17:00;15.80;99.90
19586;DHT22;9939;49.246;9.106;2023-05-08T09:19:28;15.90;99.90
19586;DHT22;9939;49.246;9.106;2023-05-08T09:21:57;16.00;99.90
19586;DHT22;9939;49.246;9.106;2023-05-08T09:24:25;16.00;99.90
19586;DHT22;9939;49.246;9.106;2023-05-08T09:26:56;16.00;99.90
19586;DHT22;9939;49.246;9.106;2023-05-08T09:29:23;16.10;99.90
19586;DHT22;9939;49.246;9.106;2023-05-08T09:31:50;16.20;99.90
19586;DHT22;9939;49.246;9.106;2023-05-08T09:34:21;16.40;99.90
19586;DHT22;9939;49.246;9.106;2023-05-08T09:36:54;16.50;99.90
19586;DHT22;9939;49.246;9.106;2023-05-08T09:39:22;16.70;99.90
19586;DHT22;9939;49.246;9.106;2023-05-08T09:42:26;16.90;99.90
19586;DHT22;9939;49.246;9.106;2023-05-08T09:44:47;17.50;99.90
19586;DHT22;9939;49.246;9.106;2023-05-08T09:47:15;18.10;99.90
19586;DHT22;9939;49.246;9.106;2023-05-08T09:52:22;18.50;99.90
19586;DHT22;9939;49.246;9.106;2023-05-08T09:57:26;19.00;99.90
19586;DHT22;9939;49.246;9.106;2023-05-08T10:00:29;18.80;99.90
19586;DHT22;9939;49.246;9.106;2023-05-08T10:02:54;18.70;99.90
19586;DHT22;9939;49.246;9.106;2023-05-08T10:05:29;18.80;99.90
19586;DHT22;9939;49.246;9.106;2023-05-08T10:07:58;18.70;99.90
19586;DHT22;9939;49.246;9.106;2023-05-08T10:10:26;18.90;99.90
19586;DHT22;9939;49.246;9.106;2023-05-08T10:12:54;18.80;99.90
19586;DHT22;9939;49.246;9.106;2023-05-08T10:15:22;19.00;99.90
19586;DHT22;9939;49.246;9.106;2023-05-08T10:17:53;19.10;99.90
19586;DHT22;9939;49.246;9.106;2023-05-08T10:20:21;18.70;99.90
19586;DHT22;9939;49.246;9.106;2023-05-08T10:22:50;18.50;99.90
19586;DHT22;9939;49.246;9.106;2023-05-08T10:25:19;18.50;99.90
19586;DHT22;9939;49.246;9.106;2023-05-08T10:27:49;18.60;99.90
19586;DHT22;9939;49.246;9.106;2023-05-08T10:30:19;18.40;99.90
19586;DHT22;9939;49.246;9.106;2023-05-08T10:32:50;18.00;99.90
19586;DHT22;9939;49.246;9.106;2023-05-08T10:35:20;18.20;99.90
19586;DHT22;9939;49.246;9.106;2023-05-08T10:40:39;17.90;99.90
19586;DHT22;9939;49.246;9.106;2023-05-08T10:43:06;17.80;99.90
19586;DHT22;9939;49.246;9.106;2023-05-08T10:45:34;17.80;99.90
19586;DHT22;9939;49.246;9.106;2023-05-08T10:48:03;17.90;99.90
19586;DHT22;9939;49.246;9.106;2023-05-08T10:56:07;17.50;99.90
19586;DHT22;9939;49.246;9.106;2023-05-08T10:58:35;17.20;99.90
19586;DHT22;9939;49.246;9.106;2023-05-08T11:03:37;17.20;99.90
19586;DHT22;9939;49.246;9.106;2023-05-08T11:06:05;17.30;99.90
19586;DHT22;9939;49.246;9.106;2023-05-08T11:08:32;17.40;99.90
19586;DHT22;9939;49.246;9.106;2023-05-08T11:11:27;17.40;99.90
19586;DHT22;9939;49.246;9.106;2023-05-08T11:19:15;17.80;99.90
19586;DHT22;9939;49.246;9.106;2023-05-08T11:24:33;17.90;99.90
19586;DHT22;9939;49.246;9.106;2023-05-08T11:27:00;17.70;99.90
19586;DHT22;9939;49.246;9.106;2023-05-08T11:29:27;17.90;99.90
19586;DHT22;9939;49.246;9.106;2023-05-08T11:31:55;18.20;99.90
19586;DHT22;9939;49.246;9.106;2023-05-08T11:37:22;18.20;99.90
19586;DHT22;9939;49.246;9.106;2023-05-08T11:39:53;18.30;99.90
19586;DHT22;9939;49.246;9.106;2023-05-08T11:47:27;19.50;99.90
19586;DHT22;9939;49.246;9.106;2023-05-08T11:49:58;19.50;99.90
19586;DHT22;9939;49.246;9.106;2023-05-08T11:52:25;19.60;99.90
19586;DHT22;9939;49.246;9.106;2023-05-08T11:54:52;19.50;99.90
19586;DHT22;9939;49.246;9.106;2023-05-08T11:57:19;19.40;99.90
19586;DHT22;9939;49.246;9.106;2023-05-08T11:59:49;19.60;99.90
19586;DHT22;9939;49.246;9.106;2023-05-08T12:02:17;19.90;99.90
19586;DHT22;9939;49.246;9.106;2023-05-08T12:04:44;19.70;99.90
19586;DHT22;9939;49.246;9.106;2023-05-08T12:07:13;20.20;99.90
19586;DHT22;9939;49.246;9.106;2023-05-08T12:09:41;20.30;99.90
19586;DHT22;9939;49.246;9.106;2023-05-08T12:12:08;20.00;99.90
19586;DHT22;9939;49.246;9.106;2023-05-08T12:14:35;19.40;99.90
19586;DHT22;9939;49.246;9.106;2023-05-08T12:17:02;19.40;99.90
19586;DHT22;9939;49.246;9.106;2023-05-08T12:19:29;19.20;99.90
19586;DHT22;9939;49.246;9.106;2023-05-08T12:21:56;19.40;99.90
19586;DHT22;9939;49.246;9.106;2023-05-08T12:24:23;19.50;99.90
19586;DHT22;9939;49.246;9.106;2023-05-08T12:26:53;20.00;99.90
19586;DHT22;9939;49.246;9.106;2023-05-08T12:29:20;19.90;99.90
19586;DHT22;9939;49.246;9.106;2023-05-08T12:31:48;19.40;99.90
19586;DHT22;9939;49.246;9.106;2023-05-08T12:34:15;19.40;99.90
19586;DHT22;9939;49.246;9.106;2023-05-08T12:36:42;19.50;99.90
19586;DHT22;9939;49.246;9.106;2023-05-08T12:39:13;19.40;99.90
19586;DHT22;9939;49.246;9.106;2023-05-08T12:41:45;19.60;99.90
19586;DHT22;9939;49.246;9.106;2023-05-08T12:44:21;19.60;99.90
19586;DHT22;9939;49.246;9.106;2023-05-08T12:46:53;19.60;99.90
19586;DHT22;9939;49.246;9.106;2023-05-08T12:52:04;19.70;99.90
19586;DHT22;9939;49.246;9.106;2023-05-08T12:56:59;20.80;99.90
19586;DHT22;9939;49.246;9.106;2023-05-08T12:59:27;20.80;99.90
19586;DHT22;9939;49.246;9.106;2023-05-08T13:01:54;20.40;99.90
19586;DHT22;9939;49.246;9.106;2023-05-08T13:04:21;19.90;99.90
19586;DHT22;9939;49.246;9.106;2023-05-08T13:06:55;20.00;99.90
19586;DHT22;9939;49.246;9.106;2023-05-08T13:09:22;19.70;99.90
19586;DHT22;9939;49.246;9.106;2023-05-08T13:11:49;19.70;99.90
19586;DHT22;9939;49.246;9.106;2023-05-08T13:14:16;19.80;99.90
19586;DHT22;9939;49.246;9.106;2023-05-08T13:16:43;20.30;99.90
19586;DHT22;9939;49.246;9.106;2023-05-08T13:19:11;20.40;99.90
19586;DHT22;9939;49.246;9.106;2023-05-08T13:21:38;20.40;99.90
19586;DHT22;9939;49.246;9.106;2023-05-08T13:24:05;20.00;99.90
19586;DHT22;9939;49.246;9.106;2023-05-08T13:26:32;20.40;99.90
19586;DHT22;9939;49.246;9.106;2023-05-08T13:28:59;20.00;99.90
19586;DHT22;9939;49.246;9.106;2023-05-08T13:31:26;19.70;99.90
19586;DHT22;9939;49.246;9.106;2023-05-08T13:33:53;19.20;99.90
19586;DHT22;9939;49.246;9.106;2023-05-08T13:36:20;19.40;99.90
19586;DHT22;9939;49.246;9.106;2023-05-08T13:38:47;19.70;99.90
19586;DHT22;9939;49.246;9.106;2023-05-08T13:41:14;19.80;99.90
19586;DHT22;9939;49.246;9.106;2023-05-08T13:43:41;19.80;99.90
19586;DHT22;9939;49.246;9.106;2023-05-08T13:46:08;20.30;99.90
19586;DHT22;9939;49.246;9.106;2023-05-08T13:48:35;20.20;99.90
19586;DHT22;9939;49.246;9.106;2023-05-08T13:51:02;20.20;99.90
19586;DHT22;9939;49.246;9.106;2023-05-08T13:53:29;20.90;99.90
19586;DHT22;9939;49.246;9.106;2023-05-08T13:55:56;21.00;99.90
19586;DHT22;9939;49.246;9.106;2023-05-08T13:58:23;21.10;99.90
19586;DHT22;9939;49.246;9.106;2023-05-08T14:00:50;20.80;99.90
19586;DHT22;9939;49.246;9.106;2023-05-08T14:03:17;20.80;99.90
19586;DHT22;9939;49.246;9.106;2023-05-08T14:05:44;21.40;99.90
19586;DHT22;9939;49.246;9.106;2023-05-08T14:08:11;21.90;99.90
19586;DHT22;9939;49.246;9.106;2023-05-08T14:10:37;21.90;99.90
19586;DHT22;9939;49.246;9.106;2023-05-08T14:13:06;21.60;99.90
19586;DHT22;9939;49.246;9.106;2023-05-08T14:15:33;21.80;99.90
19586;DHT22;9939;49.246;9.106;2023-05-08T14:18:03;22.80;99.90
19586;DHT22;9939;49.246;9.106;2023-05-08T14:20:30;22.80;99.90
19586;DHT22;9939;49.246;9.106;2023-05-08T14:22:57;22.80;99.90
19586;DHT22;9939;49.246;9.106;2023-05-08T14:25:25;22.10;99.90
19586;DHT22;9939;49.246;9.106;2023-05-08T14:27:53;21.90;99.90
19586;DHT22;9939;49.246;9.106;2023-05-08T14:30:19;21.30;99.90
19586;DHT22;9939;49.246;9.106;2023-05-08T14:32:46;21.00;99.90
19586;DHT22;9939;49.246;9.106;2023-05-08T14:35:13;20.70;99.90
19586;DHT22;9939;49.246;9.106;2023-05-08T14:37:41;20.90;99.90
19586;DHT22;9939;49.246;9.106;2023-05-08T14:40:08;20.30;99.90
19586;DHT22;9939;49.246;9.106;2023-05-08T14:42:35;20.60;99.90
19586;DHT22;9939;49.246;9.106;2023-05-08T14:45:02;20.80;99.90
19586;DHT22;9939;49.246;9.106;2023-05-08T14:47:29;20.60;99.90
19586;DHT22;9939;49.246;9.106;2023-05-08T14:49:58;20.50;99.90
19586;DHT22;9939;49.246;9.106;2023-05-08T14:52:25;20.60;99.90
19586;DHT22;9939;49.246;9.106;2023-05-08T14:54:52;20.20;99.90
19586;DHT22;9939;49.246;9.106;2023-05-08T14:57:20;20.40;99.90
19586;DHT22;9939;49.246;9.106;2023-05-08T14:59:47;20.10;99.90
19586;DHT22;9939;49.246;9.106;2023-05-08T15:02:22;20.40;99.90
19586;DHT22;9939;49.246;9.106;2023-05-08T15:04:49;20.50;99.90
19586;DHT22;9939;49.246;9.106;2023-05-08T15:07:16;20.50;99.90
19586;DHT22;9939;49.246;9.106;2023-05-08T15:09:43;20.40;99.90
19586;DHT22;9939;49.246;9.106;2023-05-08T15:12:10;20.10;99.90
19586;DHT22;9939;49.246;9.106;2023-05-08T15:14:37;20.70;99.90
19586;DHT22;9939;49.246;9.106;2023-05-08T15:17:04;21.50;99.90
19586;DHT22;9939;49.246;9.106;2023-05-08T15:19:30;22.30;99.90
19586;DHT22;9939;49.246;9.106;2023-05-08T15:21:58;23.60;99.90
19586;DHT22;9939;49.246;9.106;2023-05-08T15:24:25;25.10;99.90
19586;DHT22;9939;49.246;9.106;2023-05-08T15:26:52;24.80;99.90
19586;DHT22;9939;49.246;9.106;2023-05-08T15:29:18;24.30;99.90
19586;DHT22;9939;49.246;9.106;2023-05-08T15:31:45;23.60;99.90
19586;DHT22;9939;49.246;9.106;2023-05-08T15:34:13;22.90;99.90
19586;DHT22;9939;49.246;9.106;2023-05-08T15:36:39;22.60;99.90
19586;DHT22;9939;49.246;9.106;2023-05-08T15:39:07;22.60;99.90
19586;DHT22;9939;49.246;9.106;2023-05-08T15:41:34;22.50;99.90
19586;DHT22;9939;49.246;9.106;2023-05-08T15:44:02;22.10;99.90
19586;DHT22;9939;49.246;9.106;2023-05-08T15:46:29;22.30;99.90
19586;DHT22;9939;49.246;9.106;2023-05-08T15:48:56;22.50;99.90
19586;DHT22;9939;49.246;9.106;2023-05-08T15:51:25;23.40;99.90
19586;DHT22;9939;49.246;9.106;2023-05-08T15:53:52;22.70;99.90
19586;DHT22;9939;49.246;9.106;2023-05-08T15:56:19;22.20;99.90
19586;DHT22;9939;49.246;9.106;2023-05-08T15:58:50;21.70;99.90
19586;DHT22;9939;49.246;9.106;2023-05-08T16:01:17;21.80;99.90
19586;DHT22;9939;49.246;9.106;2023-05-08T16:03:44;21.40;99.90
19586;DHT22;9939;49.246;9.106;2023-05-08T16:06:12;21.50;99.90
19586;DHT22;9939;49.246;9.106;2023-05-08T16:08:39;21.40;99.90
19586;DHT22;9939;49.246;9.106;2023-05-08T16:11:06;20.90;99.90
19586;DHT22;9939;49.246;9.106;2023-05-08T16:13:32;20.60;99.90
19586;DHT22;9939;49.246;9.106;2023-05-08T16:16:03;20.70;99.90
19586;DHT22;9939;49.246;9.106;2023-05-08T16:18:33;20.80;99.90
19586;DHT22;9939;49.246;9.106;2023-05-08T16:21:00;20.80;99.90
19586;DHT22;9939;49.246;9.106;2023-05-08T16:23:27;21.10;99.90
19586;DHT22;9939;49.246;9.106;2023-05-08T16:25:54;21.00;99.90
19586;DHT22;9939;49.246;9.106;2023-05-08T16:28:21;21.00;99.90
19586;DHT22;9939;49.246;9.106;2023-05-08T16:30:48;20.70;99.90
19586;DHT22;9939;49.246;9.106;2023-05-08T16:33:15;20.70;99.90
19586;DHT22;9939;49.246;9.106;2023-05-08T16:35:42;20.40;99.90
19586;DHT22;9939;49.246;9.106;2023-05-08T16:38:08;20.20;99.90
19586;DHT22;9939;49.246;9.106;2023-05-08T16:40:36;20.60;99.90
19586;DHT22;9939;49.246;9.106;2023-05-08T16:43:03;20.20;99.90
19586;DHT22;9939;49.246;9.106;2023-05-08T16:45:30;20.30;99.90
19586;DHT22;9939;49.246;9.106;2023-05-08T16:47:57;20.60;99.90
19586;DHT22;9939;49.246;9.106;2023-05-08T16:50:24;20.50;99.90
19586;DHT22;9939;49.246;9.106;2023-05-08T16:52:51;19.90;99.90